Time;durP1;ratioP1;P1;durP2;ratioP2;P2;SDS_P1;SDS_P2;PMS_P1;PMS_P2;Temp;Humidity;BMP_temperature;BMP_pressure;BME280_temperature;BME280_humidity;BME280_pressure;Samples;Min_cycle;Max_cycle;Signal;HPM_P1;HPM_P2
2022/01/14 00:02:28;;;;;;;2.63;0.40;;;;;;;4.74;46.72;99130.53;6205538;28;20238;-73
2022/01/14 00:05:30;;;;;;;0.57;0.30;;;;;;;4.81;47.06;99132.03;6208442;28;20447;-73
2022/01/14 00:08:32;;;;;;;0.57;0.30;;;;;;;4.81;47.24;99121.56;6222651;28;20498;-74
2022/01/14 00:11:37;;;;;;;0.83;0.30;;;;;;;4.73;47.58;99100.06;6205935;28;20267;-74
2022/01/14 00:14:41;;;;;;;0.60;0.30;;;;;;;4.87;46.56;99115.31;6207923;28;20224;-73
2022/01/14 00:17:43;;;;;;;0.20;0.20;;;;;;;5.18;45.53;99090.63;6206919;28;20731;-74
2022/01/14 00:20:45;;;;;;;0.53;0.30;;;;;;;5.13;45.85;99126.56;6210536;28;20263;-71
2022/01/14 00:23:51;;;;;;;0.20;0.20;;;;;;;5.24;45.78;99088.69;6211950;28;20822;-73
2022/01/14 00:33:42;;;;;;;1.43;0.50;;;;;;;4.91;45.82;99091.59;6226694;28;20229;-73
2022/01/14 00:36:45;;;;;;;0.30;0.30;;;;;;;4.95;45.34;99098.44;6212009;28;20239;-73
2022/01/14 00:39:47;;;;;;;0.37;0.37;;;;;;;4.93;45.47;99099.38;6225287;28;20224;-73
2022/01/14 00:42:50;;;;;;;0.37;0.37;;;;;;;4.95;44.87;99077.50;6212018;28;20722;-75
2022/01/14 00:45:53;;;;;;;0.60;0.30;;;;;;;4.81;45.97;99087.56;6210660;28;20231;-74
2022/01/14 00:48:56;;;;;;;0.43;0.40;;;;;;;4.73;46.56;99081.75;6201999;28;20241;-74
2022/01/14 00:51:57;;;;;;;0.40;0.40;;;;;;;4.76;47.77;99073.81;6198998;28;20699;-72
2022/01/14 00:54:59;;;;;;;0.73;0.50;;;;;;;4.92;46.83;99090.69;6210855;28;20224;-73
2022/01/14 01:01:03;;;;;;;0.80;0.37;;;;;;;5.10;45.95;99103.09;6211687;28;20709;-73
2022/01/14 01:04:05;;;;;;;0.60;0.60;;;;;;;4.99;46.33;99081.69;6210286;28;20725;-73
2022/01/14 01:07:09;;;;;;;0.40;0.30;;;;;;;4.96;46.25;99067.91;6212509;28;20707;-73
2022/01/14 01:10:13;;;;;;;0.90;0.60;;;;;;;4.92;47.39;99058.44;6208011;28;20228;-73
2022/01/14 01:13:24;;;;;;;1.00;0.60;;;;;;;4.97;48.34;99096.63;6226151;28;20254;-74
2022/01/14 01:16:27;;;;;;;0.30;0.30;;;;;;;5.05;48.92;99073.66;6226673;28;20448;-73
2022/01/14 01:19:29;;;;;;;1.63;0.70;;;;;;;5.02;48.97;99071.13;6213329;28;20613;-74
2022/01/14 01:22:31;;;;;;;1.23;0.50;;;;;;;5.04;49.06;99084.16;6212150;28;20723;-73
2022/01/14 01:25:47;;;;;;;1.03;0.40;;;;;;;5.06;48.60;99069.28;6209711;28;20708;-73
2022/01/14 01:32:00;;;;;;;0.40;0.40;;;;;;;5.12;49.02;99075.13;6211321;28;20228;-74
2022/01/14 01:35:02;;;;;;;0.37;0.37;;;;;;;5.08;49.17;99072.69;6211798;28;20240;-73
2022/01/14 01:38:04;;;;;;;0.63;0.50;;;;;;;4.99;49.30;99078.25;6209392;28;20260;-73
2022/01/14 01:41:07;;;;;;;2.57;0.53;;;;;;;4.85;50.91;99078.72;6225322;28;20232;-73
2022/01/14 01:44:10;;;;;;;0.60;0.43;;;;;;;4.92;50.16;99074.13;6209679;28;20695;-73
2022/01/14 01:47:13;;;;;;;1.20;0.57;;;;;;;4.96;48.62;99076.59;6210982;28;20239;-74
2022/01/14 01:50:18;;;;;;;0.53;0.40;;;;;;;4.92;48.46;99124.69;6200778;28;20236;-72
2022/01/14 01:53:20;;;;;;;0.70;0.60;;;;;;;4.93;48.28;99068.00;6210854;28;20231;-74
2022/01/14 01:56:22;;;;;;;0.67;0.53;;;;;;;4.92;49.23;99074.13;6229405;28;20243;-73
2022/01/14 01:59:26;;;;;;;0.60;0.60;;;;;;;4.85;48.96;99059.56;6230968;28;20234;-74
2022/01/14 02:02:28;;;;;;;1.07;0.77;;;;;;;4.88;48.91;99036.78;6211141;28;20232;-74
2022/01/14 02:05:30;;;;;;;0.60;0.50;;;;;;;4.86;49.47;99050.81;6202520;28;20712;-73
2022/01/14 02:08:33;;;;;;;0.50;0.50;;;;;;;4.79;50.01;99042.34;6207944;28;20236;-73
2022/01/14 02:11:35;;;;;;;0.40;0.40;;;;;;;4.73;50.15;99025.09;6200359;28;20244;-73
2022/01/14 02:18:13;;;;;;;1.40;0.70;;;;;;;4.83;50.68;99046.53;6210466;28;20239;-74
2022/01/14 02:25:15;;;;;;;0.50;0.50;;;;;;;4.92;51.34;99004.34;6211608;28;20238;-73
2022/01/14 02:27:51;;;;;;;0.77;0.40;;;;;;;4.90;51.96;99002.69;6212976;28;20228;-73
2022/01/14 02:30:53;;;;;;;1.17;0.60;;;;;;;4.74;52.93;99013.72;6209315;28;20227;-73
2022/01/14 02:33:55;;;;;;;0.67;0.60;;;;;;;4.97;52.05;98984.13;6210655;28;20293;-75
2022/01/14 02:36:57;;;;;;;0.73;0.50;;;;;;;4.95;52.82;98999.03;6210394;28;20231;-74
2022/01/14 02:39:59;;;;;;;0.50;0.30;;;;;;;5.03;52.48;98970.81;6226419;28;20350;-74
2022/01/14 02:43:02;;;;;;;0.60;0.30;;;;;;;5.05;53.10;98976.00;6209785;28;20224;-73
2022/01/14 02:46:06;;;;;;;0.23;0.20;;;;;;;5.02;53.71;98987.41;6210261;28;20225;-72
2022/01/14 02:49:08;;;;;;;0.30;0.30;;;;;;;4.97;53.42;98986.75;6210362;28;20842;-73
2022/01/14 02:52:10;;;;;;;0.47;0.30;;;;;;;4.92;54.55;98991.28;6209361;28;20220;-74
2022/01/14 02:55:20;;;;;;;0.73;0.30;;;;;;;5.06;53.53;98988.16;6210282;28;20228;-74
2022/01/14 02:58:24;;;;;;;0.43;0.40;;;;;;;5.06;53.89;98989.03;6207440;28;20738;-74
2022/01/14 03:01:27;;;;;;;0.73;0.30;;;;;;;4.95;53.99;98988.56;6223629;28;20813;-71
2022/01/14 03:04:32;;;;;;;0.67;0.30;;;;;;;5.04;51.71;98996.06;6209207;28;20236;-73
2022/01/14 03:07:36;;;;;;;0.50;0.50;;;;;;;5.07;51.25;99014.28;6209590;28;20236;-74
2022/01/14 03:10:39;;;;;;;1.03;0.53;;;;;;;4.98;50.67;98983.22;6207962;28;20252;-73
2022/01/14 03:13:42;;;;;;;0.50;0.33;;;;;;;4.92;51.41;98979.97;6209240;28;20248;-74
2022/01/14 03:16:47;;;;;;;0.30;0.30;;;;;;;4.77;51.77;98984.84;6208685;28;20730;-73
2022/01/14 03:19:49;;;;;;;0.40;0.40;;;;;;;4.96;51.81;98976.34;6209473;28;20235;-74
2022/01/14 03:23:03;;;;;;;0.73;0.47;;;;;;;4.90;51.59;98969.56;6207812;28;20235;-73
2022/01/14 03:26:05;;;;;;;0.40;0.40;;;;;;;4.81;51.97;98968.13;6225098;28;20330;-73
2022/01/14 03:29:08;;;;;;;1.03;0.53;;;;;;;4.71;52.13;98984.22;6207141;28;20744;-74
2022/01/14 03:32:10;;;;;;;0.57;0.40;;;;;;;4.55;53.26;98986.53;6207846;28;20240;-73
2022/01/14 03:35:13;;;;;;;0.30;0.30;;;;;;;4.66;52.24;98973.06;6224528;28;20266;-74
2022/01/14 03:38:16;;;;;;;0.90;0.50;;;;;;;4.80;51.60;98973.41;6209502;28;20251;-73
2022/01/14 03:41:18;;;;;;;0.30;0.30;;;;;;;4.74;52.72;98977.13;6217665;28;20228;-73
2022/01/14 03:44:20;;;;;;;0.30;0.30;;;;;;;4.71;51.81;98977.22;6193258;28;20246;-75
2022/01/14 03:47:22;;;;;;;0.60;0.33;;;;;;;4.90;50.88;98966.94;6209082;28;20309;-73
2022/01/14 03:50:25;;;;;;;1.27;0.50;;;;;;;4.88;51.47;98954.84;6209080;28;20232;-73
2022/01/14 03:53:27;;;;;;;0.53;0.40;;;;;;;4.69;52.16;98954.66;6214917;28;20239;-72
2022/01/14 03:56:29;;;;;;;0.97;0.40;;;;;;;4.44;53.41;98954.69;6219308;28;20241;-72
2022/01/14 03:59:31;;;;;;;0.80;0.60;;;;;;;4.61;52.83;98956.69;6214147;28;20233;-73
2022/01/14 04:02:34;;;;;;;1.27;0.50;;;;;;;4.67;52.93;98980.00;6215028;28;20596;-73
2022/01/14 04:05:36;;;;;;;0.77;0.40;;;;;;;4.75;52.65;98947.44;6213894;28;20226;-73
2022/01/14 04:08:39;;;;;;;0.67;0.50;;;;;;;4.60;52.38;98945.38;6214278;28;20235;-73
2022/01/14 04:11:44;;;;;;;1.03;0.67;;;;;;;4.57;52.11;98947.25;6212369;28;20216;-72
2022/01/14 04:17:48;;;;;;;0.80;0.60;;;;;;;4.48;52.26;98956.28;6211666;28;20714;-73
2022/01/14 04:20:50;;;;;;;0.67;0.60;;;;;;;4.60;52.52;98929.69;6204884;28;20232;-73
2022/01/14 04:23:52;;;;;;;0.60;0.50;;;;;;;4.48;53.12;98953.69;6224837;28;20616;-73
2022/01/14 04:26:54;;;;;;;1.57;0.63;;;;;;;4.60;52.61;98939.28;6213180;28;20224;-73
2022/01/14 04:29:56;;;;;;;0.80;0.60;;;;;;;4.51;53.22;98940.47;6229877;28;20231;-73
2022/01/14 04:32:58;;;;;;;0.57;0.43;;;;;;;4.49;52.93;98951.91;6215641;28;20231;-73
2022/01/14 04:36:01;;;;;;;1.07;0.50;;;;;;;4.45;53.28;98936.34;6214280;28;20227;-73
2022/01/14 04:39:04;;;;;;;0.80;0.53;;;;;;;4.34;53.17;98928.00;6215229;28;20279;-73
2022/01/14 04:42:06;;;;;;;0.40;0.40;;;;;;;4.37;53.38;98934.91;6212691;28;20701;-73
2022/01/14 04:45:25;;;;;;;0.70;0.50;;;;;;;4.40;52.03;98938.25;6230252;28;20729;-73
2022/01/14 04:48:29;;;;;;;1.87;0.60;;;;;;;4.41;52.82;98936.47;6213205;28;20228;-71
2022/01/14 04:51:31;;;;;;;0.97;0.70;;;;;;;4.35;52.98;98929.72;6209545;28;20240;-74
2022/01/14 04:54:35;;;;;;;0.80;0.80;;;;;;;4.35;53.55;98928.88;6227916;28;20246;-73
2022/01/14 04:57:38;;;;;;;0.90;0.67;;;;;;;4.36;53.65;98928.81;6212459;28;20236;-74
2022/01/14 05:00:41;;;;;;;0.90;0.70;;;;;;;4.53;53.15;98929.97;6212966;28;20318;-72
2022/01/14 05:03:43;;;;;;;1.07;0.80;;;;;;;4.42;54.21;98920.75;6212553;28;20239;-73
2022/01/14 05:06:53;;;;;;;0.77;0.70;;;;;;;4.45;53.81;98930.25;6211309;28;20307;-72
2022/01/14 05:10:08;;;;;;;1.20;0.83;;;;;;;4.46;53.94;98942.41;6214389;28;20236;-73
2022/01/14 05:13:10;;;;;;;1.13;0.80;;;;;;;4.35;54.23;98934.09;6213159;28;20232;-73
2022/01/14 05:16:12;;;;;;;1.30;0.90;;;;;;;4.39;54.41;98914.81;6213872;28;20323;-72
2022/01/14 05:19:15;;;;;;;1.30;0.80;;;;;;;4.34;54.80;98921.94;6213210;28;20239;-72
2022/01/14 05:22:17;;;;;;;0.73;0.70;;;;;;;4.36;54.99;98934.03;6227472;28;20842;-73
2022/01/14 05:25:19;;;;;;;1.00;0.70;;;;;;;4.51;53.91;98906.50;6216087;28;20845;-73
2022/01/14 05:28:22;;;;;;;1.20;0.80;;;;;;;4.58;55.62;98930.66;6212480;28;20242;-73
2022/01/14 05:32:04;;;;;;;1.10;0.60;;;;;;;4.72;56.44;98931.84;6214779;28;20267;-73
2022/01/14 05:35:06;;;;;;;0.97;0.80;;;;;;;4.61;56.89;98944.47;6209120;28;20239;-73
2022/01/14 05:38:08;;;;;;;0.73;0.63;;;;;;;4.69;57.17;98952.06;6208941;28;20238;-72
2022/01/14 05:41:10;;;;;;;0.53;0.50;;;;;;;4.65;57.03;98927.78;6210862;28;20230;-74
2022/01/14 05:44:12;;;;;;;0.60;0.50;;;;;;;4.59;56.45;98943.66;6209030;28;20241;-73
2022/01/14 05:47:14;;;;;;;1.63;0.80;;;;;;;4.59;55.99;98937.59;6212714;28;20739;-72
2022/01/14 05:50:19;;;;;;;0.80;0.60;;;;;;;4.68;55.59;98937.28;6213394;28;20604;-72
2022/01/14 05:53:21;;;;;;;0.53;0.47;;;;;;;4.67;55.65;98917.25;6211239;28;20231;-71
2022/01/14 05:56:23;;;;;;;0.50;0.50;;;;;;;4.58;55.49;98921.06;6209156;28;20836;-73
2022/01/14 05:59:25;;;;;;;1.90;0.60;;;;;;;4.48;55.97;98929.28;6193036;28;20327;-72
2022/01/14 06:02:27;;;;;;;1.17;0.63;;;;;;;4.36;56.89;98930.56;6209793;28;20246;-73
2022/01/14 06:05:29;;;;;;;2.57;0.50;;;;;;;4.30;57.16;98925.56;6211640;28;20234;-73
2022/01/14 06:08:32;;;;;;;0.83;0.63;;;;;;;4.43;56.05;98924.22;6213513;28;20726;-73
2022/01/14 06:11:33;;;;;;;0.47;0.40;;;;;;;4.54;55.25;98942.13;6210651;28;20243;-72
2022/01/14 06:14:35;;;;;;;0.47;0.47;;;;;;;4.51;55.22;98929.16;6209993;28;20235;-73
2022/01/14 06:17:38;;;;;;;0.90;0.47;;;;;;;4.45;54.79;98910.19;6208985;28;20243;-73
2022/01/14 06:20:39;;;;;;;0.70;0.50;;;;;;;4.51;54.50;98903.88;6210954;28;20231;-72
2022/01/14 06:23:42;;;;;;;0.50;0.40;;;;;;;4.44;55.07;98920.69;6210805;28;20237;-73
2022/01/14 06:26:56;;;;;;;0.40;0.33;;;;;;;4.47;53.66;98904.06;6211271;28;20322;-73
2022/01/14 06:30:00;;;;;;;0.47;0.47;;;;;;;4.56;52.75;98899.34;6211176;28;20223;-72
2022/01/14 06:33:02;;;;;;;0.60;0.50;;;;;;;4.55;53.50;98929.00;6226497;28;20322;-72
2022/01/14 06:36:04;;;;;;;0.90;0.50;;;;;;;4.40;53.46;98921.69;6225692;28;20245;-73
2022/01/14 06:39:06;;;;;;;0.63;0.63;;;;;;;4.44;52.40;98921.56;6212184;28;20244;-73
2022/01/14 06:42:08;;;;;;;0.80;0.50;;;;;;;4.47;52.32;98910.16;6213177;28;20633;-72
2022/01/14 06:45:10;;;;;;;0.60;0.50;;;;;;;4.69;51.27;98918.06;6228343;28;20213;-72
2022/01/14 06:48:12;;;;;;;0.60;0.40;;;;;;;4.62;51.94;98890.41;6211926;28;20613;-73
2022/01/14 06:51:15;;;;;;;1.10;0.50;;;;;;;4.59;52.39;98895.78;6211622;28;20240;-73
2022/01/14 06:54:19;;;;;;;0.50;0.50;;;;;;;4.48;52.81;98901.41;6211278;28;20621;-73
2022/01/14 06:57:24;;;;;;;0.40;0.33;;;;;;;4.33;53.97;98920.22;6210940;28;20237;-73
2022/01/14 07:00:28;;;;;;;0.70;0.40;;;;;;;4.34;55.04;98890.56;6211580;28;20668;-73
2022/01/14 07:03:30;;;;;;;0.40;0.40;;;;;;;4.64;54.45;98886.84;6212576;28;20626;-73
2022/01/14 07:06:32;;;;;;;0.87;0.40;;;;;;;4.64;55.24;98883.38;6210316;28;20598;-73
2022/01/14 07:09:35;;;;;;;0.50;0.40;;;;;;;4.82;54.32;98877.44;6211316;28;20234;-73
2022/01/14 07:12:40;;;;;;;0.73;0.50;;;;;;;4.76;54.19;98870.69;6210495;28;20586;-73
2022/01/14 07:15:43;;;;;;;0.67;0.50;;;;;;;4.63;55.46;98876.44;6210175;28;20263;-73
2022/01/14 07:18:48;;;;;;;0.63;0.50;;;;;;;4.70;55.44;98870.06;6208773;28;20662;-73
2022/01/14 07:21:50;;;;;;;0.80;0.40;;;;;;;4.68;55.96;98884.97;6210416;28;20234;-72
2022/01/14 07:24:52;;;;;;;0.43;0.40;;;;;;;4.65;55.91;98879.84;6212116;28;20761;-73
2022/01/14 07:27:54;;;;;;;0.67;0.57;;;;;;;4.71;55.40;98861.31;6208441;28;20398;-73
2022/01/14 07:30:56;;;;;;;1.57;0.40;;;;;;;4.72;55.49;98866.50;6210113;28;20396;-73
2022/01/14 07:33:58;;;;;;;0.53;0.50;;;;;;;4.73;56.22;98876.03;6224912;28;20236;-73
2022/01/14 07:37:00;;;;;;;0.60;0.40;;;;;;;4.75;55.94;98861.16;6206835;28;20235;-72
2022/01/14 07:40:02;;;;;;;2.30;0.50;;;;;;;4.88;55.31;98877.22;6223358;28;20228;-74
2022/01/14 07:43:04;;;;;;;0.40;0.40;;;;;;;5.13;55.05;98849.19;6210430;28;20231;-72
2022/01/14 07:46:06;;;;;;;0.47;0.40;;;;;;;5.15;54.95;98857.00;6210192;28;20308;-73
2022/01/14 07:49:09;;;;;;;0.97;0.63;;;;;;;5.10;55.29;98864.16;6207386;28;20320;-71
2022/01/14 07:52:11;;;;;;;0.57;0.40;;;;;;;5.08;55.72;98850.31;6209167;28;20236;-73
2022/01/14 07:55:12;;;;;;;0.70;0.40;;;;;;;5.13;55.70;98875.34;6210074;28;20228;-73
2022/01/14 07:58:15;;;;;;;0.73;0.60;;;;;;;5.12;55.57;98860.56;6208950;28;20228;-73
2022/01/14 08:01:17;;;;;;;0.57;0.40;;;;;;;5.16;56.20;98871.78;6207814;28;20240;-73
2022/01/14 08:04:19;;;;;;;0.33;0.30;;;;;;;5.21;56.53;98867.19;6208239;28;20590;-73
2022/01/14 08:07:23;;;;;;;1.20;0.70;;;;;;;5.37;55.43;98865.69;6206884;28;20232;-73
2022/01/14 08:10:27;;;;;;;1.07;0.70;;;;;;;5.36;55.82;98865.75;6208427;28;20237;-73
2022/01/14 08:13:29;;;;;;;1.00;0.70;;;;;;;5.37;56.27;98843.91;6225726;28;20239;-72
2022/01/14 08:16:31;;;;;;;0.93;0.70;;;;;;;5.35;55.58;98859.66;6209825;28;20256;-73
2022/01/14 08:19:34;;;;;;;0.63;0.37;;;;;;;5.40;54.72;98859.47;6207637;28;20591;-73
2022/01/14 08:22:37;;;;;;;1.73;0.30;;;;;;;5.41;54.76;98869.88;6223476;28;20232;-73
2022/01/14 08:25:38;;;;;;;0.70;0.50;;;;;;;5.43;54.72;98857.56;6222563;28;20235;-73
2022/01/14 08:28:42;;;;;;;0.93;0.60;;;;;;;5.52;54.67;98862.44;6209738;28;20287;-73
2022/01/14 08:31:46;;;;;;;1.20;0.70;;;;;;;5.60;54.85;98863.88;6209242;28;20599;-73
2022/01/14 08:34:50;;;;;;;0.60;0.50;;;;;;;5.65;54.97;98883.75;6206640;28;20575;-72
2022/01/14 08:37:52;;;;;;;0.83;0.57;;;;;;;5.70;54.84;98876.53;6223815;28;20240;-73
2022/01/14 08:40:55;;;;;;;1.50;0.63;;;;;;;5.79;54.57;98875.31;6212722;28;20228;-74
2022/01/14 08:43:58;;;;;;;0.60;0.60;;;;;;;5.93;53.92;98873.84;6210588;28;20223;-74
2022/01/14 08:47:20;;;;;;;0.47;0.40;;;;;;;5.92;53.40;98895.72;6213031;28;20227;-72
2022/01/14 08:50:31;;;;;;;1.23;0.50;;;;;;;5.94;52.84;98885.16;6212372;28;20241;-73
2022/01/14 08:53:32;;;;;;;1.03;0.60;;;;;;;6.08;52.57;98874.13;6211389;28;20232;-73
2022/01/14 08:56:36;;;;;;;0.57;0.57;;;;;;;6.14;52.63;98884.31;6213014;28;20232;-73
2022/01/14 08:59:38;;;;;;;0.63;0.40;;;;;;;6.26;51.58;98895.13;6211596;28;20243;-73
2022/01/14 09:02:40;;;;;;;0.80;0.53;;;;;;;6.38;52.08;98892.91;6212445;28;20244;-73
2022/01/14 09:05:43;;;;;;;0.50;0.37;;;;;;;6.46;51.59;98886.41;6212769;28;20708;-74
2022/01/14 09:08:45;;;;;;;0.97;0.50;;;;;;;6.62;51.55;98895.28;6213864;28;20247;-73
2022/01/14 09:11:47;;;;;;;0.63;0.50;;;;;;;6.82;50.88;98896.13;6212952;28;20216;-74
2022/01/14 09:14:49;;;;;;;0.60;0.60;;;;;;;6.99;50.53;98901.44;6214450;28;20696;-72
2022/01/14 09:17:57;;;;;;;1.07;0.40;;;;;;;7.09;50.65;98897.47;6214343;28;20721;-72
2022/01/14 09:20:59;;;;;;;1.23;0.30;;;;;;;7.19;50.58;98906.63;6212634;28;20605;-73
2022/01/14 09:24:04;;;;;;;0.70;0.60;;;;;;;7.30;51.00;98899.09;6228052;28;20224;-73
2022/01/14 09:27:06;;;;;;;0.53;0.50;;;;;;;7.39;51.13;98884.66;6230333;28;20593;-73
2022/01/14 09:30:08;;;;;;;1.10;0.70;;;;;;;7.48;50.70;98917.53;6213988;28;20228;-74
2022/01/14 09:33:10;;;;;;;2.03;0.50;;;;;;;7.59;50.39;98891.59;6212335;28;20582;-72
2022/01/14 09:36:12;;;;;;;0.73;0.50;;;;;;;7.71;50.36;98891.00;6214504;28;20329;-74
2022/01/14 09:39:15;;;;;;;0.53;0.43;;;;;;;7.73;50.29;98876.84;6213197;28;20732;-72
2022/01/14 09:42:17;;;;;;;0.83;0.50;;;;;;;7.84;50.45;98876.31;6214900;28;20221;-72
2022/01/14 09:45:20;;;;;;;0.47;0.40;;;;;;;7.86;49.86;98874.47;6214268;28;20432;-74
2022/01/14 09:48:22;;;;;;;0.60;0.53;;;;;;;8.01;50.37;98860.53;6213711;28;20227;-74
2022/01/14 09:51:24;;;;;;;0.50;0.50;;;;;;;8.08;49.27;98861.09;6213373;28;20601;-73
2022/01/14 09:54:26;;;;;;;1.27;0.70;;;;;;;8.14;49.86;98871.28;6212721;28;20233;-72
2022/01/14 09:57:28;;;;;;;0.73;0.60;;;;;;;8.17;49.77;98876.41;6229988;28;20227;-73
2022/01/14 10:00:30;;;;;;;0.93;0.50;;;;;;;8.28;48.50;98876.69;6208823;28;20264;-73
2022/01/14 10:03:33;;;;;;;0.53;0.53;;;;;;;8.32;49.30;98854.59;6214342;28;20233;-72
2022/01/14 10:06:55;;;;;;;0.60;0.50;;;;;;;8.33;49.10;98851.03;6214697;28;20290;-73
2022/01/14 10:09:59;;;;;;;0.63;0.50;;;;;;;8.28;50.03;98852.19;6211214;28;20233;-74
2022/01/14 10:13:11;;;;;;;0.90;0.70;;;;;;;8.36;49.39;98814.06;6212550;28;20239;-73
2022/01/14 10:16:13;;;;;;;0.90;0.63;;;;;;;8.29;49.48;98838.91;6213851;28;20243;-73
2022/01/14 10:19:24;;;;;;;1.10;0.70;;;;;;;8.38;50.10;98798.19;6211920;28;20252;-73
2022/01/14 10:22:29;;;;;;;0.70;0.60;;;;;;;8.37;48.51;98818.38;6214850;28;20594;-71
2022/01/14 10:25:31;;;;;;;0.50;0.50;;;;;;;8.45;49.97;98791.66;6214392;28;20236;-72
2022/01/14 10:28:33;;;;;;;0.67;0.50;;;;;;;8.46;49.05;98796.84;6212178;28;20227;-73
2022/01/14 10:31:37;;;;;;;0.40;0.40;;;;;;;8.56;49.70;98786.66;6211985;28;20239;-74
2022/01/14 10:34:39;;;;;;;0.73;0.60;;;;;;;8.44;49.30;98782.91;6212573;28;20241;-74
2022/01/14 10:37:41;;;;;;;0.40;0.40;;;;;;;8.57;49.76;98783.13;6225961;28;20248;-74
2022/01/14 10:40:51;;;;;;;0.50;0.50;;;;;;;8.85;49.84;98770.13;6211698;28;20254;-75
2022/01/14 10:43:55;;;;;;;0.67;0.50;;;;;;;8.92;49.68;98767.13;6225796;28;20612;-73
2022/01/14 10:47:19;;;;;;;0.67;0.40;;;;;;;9.15;49.03;98735.09;6228334;28;20239;-73
2022/01/14 10:50:52;;;;;;;1.13;0.47;;;;;;;9.05;48.59;98747.09;6190039;28;20229;-74
2022/01/14 10:53:55;;;;;;;0.80;0.60;;;;;;;9.03;49.05;98770.03;6191410;28;20247;-73
2022/01/14 10:57:12;;;;;;;0.83;0.50;;;;;;;9.21;49.37;98750.53;6208337;28;20254;-74
2022/01/14 11:00:18;;;;;;;0.30;0.30;;;;;;;9.40;48.47;98740.63;6227800;28;20321;-73
2022/01/14 11:03:34;;;;;;;0.50;0.40;;;;;;;9.46;48.13;98752.59;6211131;28;20880;-72
2022/01/14 11:06:40;;;;;;;0.67;0.40;;;;;;;9.40;48.87;98737.97;6216282;28;20256;-75
2022/01/14 11:09:42;;;;;;;0.43;0.43;;;;;;;9.38;47.89;98739.88;6209360;28;20235;-74
2022/01/14 11:12:45;;;;;;;0.50;0.40;;;;;;;9.42;48.33;98730.84;6214309;28;20232;-73
2022/01/14 11:15:47;;;;;;;1.33;0.60;;;;;;;9.52;48.97;98746.97;6229655;28;20235;-73
2022/01/14 11:18:49;;;;;;;0.50;0.40;;;;;;;9.56;48.99;98741.44;6212107;28;20238;-72
2022/01/14 11:25:13;;;;;;;0.87;0.47;;;;;;;9.35;49.48;98734.78;6228279;28;20598;-73
2022/01/14 11:28:29;;;;;;;0.83;0.60;;;;;;;9.38;48.11;98721.44;6212868;28;20235;-73
2022/01/14 11:31:35;;;;;;;0.80;0.50;;;;;;;9.46;48.60;98706.03;6215526;28;20351;-73
2022/01/14 11:34:43;;;;;;;0.63;0.40;;;;;;;9.54;49.19;98687.13;6216566;28;20775;-74
2022/01/14 11:37:46;;;;;;;0.63;0.57;;;;;;;9.58;49.74;98694.72;6213689;28;20250;-72
2022/01/14 11:40:49;;;;;;;0.60;0.60;;;;;;;9.51;48.65;98697.81;6213172;28;20240;-73
2022/01/14 11:43:54;;;;;;;0.53;0.50;;;;;;;9.62;49.82;98693.63;6215508;28;20243;-73
2022/01/14 11:47:00;;;;;;;0.90;0.60;;;;;;;9.79;49.18;98665.38;6212763;28;20758;-72
2022/01/14 11:50:05;;;;;;;0.90;0.47;;;;;;;9.92;48.61;98658.41;6209687;28;20228;-74
2022/01/14 11:53:35;;;;;;;0.60;0.40;;;;;;;9.99;47.75;98638.63;6216546;28;20224;-72
2022/01/14 11:56:37;;;;;;;0.73;0.50;;;;;;;10.06;46.91;98644.38;6212407;28;20304;-73
2022/01/14 11:59:41;;;;;;;0.93;0.50;;;;;;;10.31;47.36;98644.53;6213670;28;20239;-73
2022/01/14 12:02:43;;;;;;;0.90;0.57;;;;;;;10.41;46.59;98637.72;6211950;28;20746;-73
2022/01/14 12:05:59;;;;;;;0.60;0.50;;;;;;;10.45;45.61;98652.44;6210800;28;20228;-73
2022/01/14 12:09:04;;;;;;;0.87;0.60;;;;;;;10.65;46.03;98640.59;6215538;28;20233;-73
2022/01/14 12:12:30;;;;;;;0.70;0.60;;;;;;;10.68;46.09;98624.56;6213198;28;20763;-72
2022/01/14 12:15:58;;;;;;;0.80;0.60;;;;;;;10.76;45.15;98646.00;6212778;28;20224;-72
2022/01/14 12:19:03;;;;;;;0.47;0.47;;;;;;;10.77;45.84;98642.44;6213702;28;20247;-73
2022/01/14 12:22:06;;;;;;;1.10;0.73;;;;;;;10.89;45.61;98630.19;6213972;28;20247;-74
2022/01/14 12:25:09;;;;;;;0.60;0.60;;;;;;;10.96;44.30;98629.69;6212596;28;20222;-72
2022/01/14 12:28:23;;;;;;;0.50;0.50;;;;;;;11.14;44.64;98635.53;6229182;28;20720;-71
2022/01/14 12:31:25;;;;;;;1.30;1.00;;;;;;;11.08;44.31;98647.34;6215310;28;20718;-73
2022/01/14 12:34:27;;;;;;;1.00;0.70;;;;;;;10.93;44.43;98619.31;6215770;28;20238;-72
2022/01/14 12:37:49;;;;;;;1.50;0.77;;;;;;;10.91;44.52;98618.56;6206026;28;20252;-73
2022/01/14 12:40:51;;;;;;;0.87;0.80;;;;;;;11.05;43.56;98641.44;6207266;28;20242;-73
2022/01/14 12:43:58;;;;;;;0.87;0.70;;;;;;;11.01;43.63;98617.00;6207207;28;20230;-73
2022/01/14 12:47:07;;;;;;;0.73;0.73;;;;;;;11.31;42.88;98618.53;6206315;28;20233;-73
2022/01/14 12:50:11;;;;;;;1.00;0.60;;;;;;;11.35;42.15;98588.31;6198555;28;20237;-74
2022/01/14 12:53:18;;;;;;;0.87;0.67;;;;;;;11.43;41.32;98604.47;6197712;28;20234;-73
2022/01/14 12:56:22;;;;;;;0.73;0.63;;;;;;;11.60;41.14;98613.88;6207470;28;20229;-73
2022/01/14 12:59:25;;;;;;;0.73;0.67;;;;;;;11.44;41.27;98575.31;6208229;28;20237;-75
2022/01/14 13:02:29;;;;;;;1.27;0.50;;;;;;;11.70;41.25;98601.72;6207100;28;20308;-75
2022/01/14 13:05:31;;;;;;;1.07;0.53;;;;;;;13.11;38.84;98596.63;6207197;28;20400;-72
2022/01/14 13:08:33;;;;;;;0.73;0.50;;;;;;;14.48;35.86;98577.84;6206506;28;20269;-74
2022/01/14 13:11:50;;;;;;;0.80;0.53;;;;;;;15.37;33.91;98589.88;6206938;28;20246;-73
2022/01/14 13:14:57;;;;;;;2.00;0.53;;;;;;;16.12;32.75;98601.03;6207602;28;20241;-76
2022/01/14 13:18:01;;;;;;;0.40;0.40;;;;;;;13.73;35.72;98606.03;6220925;28;20640;-74
2022/01/14 13:21:04;;;;;;;0.60;0.60;;;;;;;11.94;40.08;98586.78;6201534;28;20723;-74
2022/01/14 13:24:30;;;;;;;0.90;0.50;;;;;;;10.75;42.38;98598.59;6206762;28;20615;-74
2022/01/14 13:27:35;;;;;;;1.83;0.50;;;;;;;10.07;44.61;98611.78;6220246;28;20316;-74
2022/01/14 13:30:40;;;;;;;0.50;0.50;;;;;;;9.70;45.96;98595.63;6222439;28;20225;-74
2022/01/14 13:33:42;;;;;;;0.97;0.70;;;;;;;9.47;46.20;98581.25;6205973;28;20607;-73
2022/01/14 13:36:44;;;;;;;1.13;0.97;;;;;;;9.33;46.17;98609.34;6221482;28;20232;-73
2022/01/14 13:40:01;;;;;;;0.60;0.50;;;;;;;9.16;46.27;98579.63;6206449;28;20714;-74
2022/01/14 13:43:22;;;;;;;0.50;0.50;;;;;;;9.03;46.29;98580.44;6203931;28;20728;-73
2022/01/14 13:46:27;;;;;;;0.60;0.60;;;;;;;8.97;45.96;98580.81;6205655;28;20241;-73
2022/01/14 13:49:29;;;;;;;0.60;0.60;;;;;;;8.83;47.31;98585.09;6205825;28;20599;-73
2022/01/14 13:52:31;;;;;;;1.27;0.80;;;;;;;8.73;47.38;98586.56;6220668;28;20667;-73
2022/01/14 13:55:50;;;;;;;2.40;0.63;;;;;;;8.67;47.35;98586.09;6205571;28;20681;-73
2022/01/14 13:58:57;;;;;;;2.43;0.80;;;;;;;8.55;47.88;98577.13;6221573;28;20239;-73
2022/01/14 14:02:00;;;;;;;0.77;0.77;;;;;;;8.45;48.07;98584.69;6204346;28;20645;-73
2022/01/14 14:05:03;;;;;;;2.20;1.07;;;;;;;8.36;48.95;98600.16;6206432;28;20228;-73
2022/01/14 14:08:15;;;;;;;1.47;0.87;;;;;;;8.36;48.45;98602.78;6204128;28;20760;-72
2022/01/14 14:18:06;;;;;;;3.50;1.27;;;;;;;8.01;49.46;98605.56;6205504;28;20237;-73
2022/01/14 14:21:15;;;;;;;1.47;1.10;;;;;;;8.01;49.41;98612.59;6187834;28;20222;-73
2022/01/14 14:24:17;;;;;;;1.40;1.03;;;;;;;7.89;49.98;98600.97;6203364;28;20585;-73
2022/01/14 14:27:21;;;;;;;1.10;1.00;;;;;;;7.85;50.37;98609.13;6205505;28;20579;-72
2022/01/14 14:30:26;;;;;;;1.53;1.10;;;;;;;7.82;50.67;98617.16;6218965;28;20234;-73
2022/01/14 14:33:29;;;;;;;1.30;1.00;;;;;;;7.73;51.46;98614.09;6205365;28;20313;-73
2022/01/14 14:36:31;;;;;;;1.20;1.00;;;;;;;7.69;51.65;98596.78;6204412;28;20224;-72
2022/01/14 14:39:34;;;;;;;1.80;1.20;;;;;;;7.77;52.21;98620.06;6204632;28;20229;-73
2022/01/14 14:42:36;;;;;;;1.93;1.10;;;;;;;7.64;52.39;98606.72;6205111;28;20611;-73
2022/01/14 14:45:38;;;;;;;2.33;1.30;;;;;;;7.56;53.48;98619.41;6205868;28;20561;-73
2022/01/14 14:48:40;;;;;;;1.10;0.90;;;;;;;7.49;53.57;98625.91;6208111;28;20228;-74
2022/01/14 14:51:43;;;;;;;1.07;0.90;;;;;;;7.36;54.04;98644.09;6205793;28;20675;-73
2022/01/14 14:54:45;;;;;;;1.73;1.00;;;;;;;7.32;55.25;98639.94;6206318;28;20226;-72
2022/01/14 14:57:47;;;;;;;1.53;1.23;;;;;;;7.28;55.39;98630.53;6206256;28;20721;-73
2022/01/14 15:00:49;;;;;;;2.17;1.30;;;;;;;7.25;54.91;98649.06;6203840;28;20684;-74
2022/01/14 15:03:51;;;;;;;2.03;1.20;;;;;;;7.27;55.79;98626.19;6203970;28;20683;-73
2022/01/14 15:06:53;;;;;;;1.90;1.30;;;;;;;7.19;55.87;98620.47;6204334;28;20602;-73
2022/01/14 15:09:55;;;;;;;2.60;1.00;;;;;;;7.12;56.10;98607.75;6205127;28;21099;-74
2022/01/14 15:12:57;;;;;;;1.63;1.20;;;;;;;7.01;56.04;98621.41;6203671;28;20634;-73